Time;durP1;ratioP1;P1;durP2;ratioP2;P2;SDS_P1;SDS_P2;PMS_P1;PMS_P2;Temp;Humidity;BMP_temperature;BMP_pressure;BME280_temperature;BME280_humidity;BME280_pressure;Samples;Min_cycle;Max_cycle;Signal;HPM_P1;HPM_P2
2022/08/03 00:02:23;;;;;;;1.70;1.60;;;23.00;29.70;;;;;;10445757;28;20311;-76
2022/08/03 00:07:28;;;;;;;1.80;1.70;;;23.00;29.80;;;;;;10436767;28;20701;-76
2022/08/03 00:12:31;;;;;;;1.53;1.50;;;23.00;30.30;;;;;;10441072;28;20232;-76
2022/08/03 00:17:34;;;;;;;1.47;1.37;;;23.00;29.90;;;;;;10439086;28;20228;-75
2022/08/03 00:22:57;;;;;;;1.73;1.63;;;23.00;29.80;;;;;;10439587;28;20255;-76
2022/08/03 00:28:00;;;;;;;1.50;1.40;;;23.00;30.40;;;;;;10443180;28;20825;-76
2022/08/03 00:33:03;;;;;;;1.77;1.40;;;23.00;30.00;;;;;;10443248;28;20243;-76
2022/08/03 00:38:11;;;;;;;2.10;1.90;;;23.00;30.00;;;;;;10443045;28;20247;-76
2022/08/03 00:43:15;;;;;;;1.63;1.53;;;23.00;30.80;;;;;;10438874;28;20236;-76
2022/08/03 00:48:18;;;;;;;1.47;1.37;;;23.10;30.30;;;;;;10440935;28;20244;-76
2022/08/03 00:53:37;;;;;;;2.13;1.60;;;23.00;30.20;;;;;;10438682;28;20231;-76
2022/08/03 00:58:40;;;;;;;2.37;1.60;;;23.10;31.00;;;;;;10439979;28;20252;-76
2022/08/03 01:03:43;;;;;;;1.70;1.60;;;23.10;30.40;;;;;;10441959;28;20950;-76
2022/08/03 01:08:54;;;;;;;1.50;1.40;;;23.00;30.20;;;;;;10438033;28;20225;-76
2022/08/03 01:14:04;;;;;;;1.80;1.60;;;22.90;31.30;;;;;;10442203;28;20320;-76
2022/08/03 01:19:41;;;;;;;1.90;1.70;;;22.80;31.30;;;;;;10435469;28;20246;-76
2022/08/03 01:24:56;;;;;;;2.70;1.80;;;22.80;31.30;;;;;;10436374;28;20224;-76
2022/08/03 01:30:04;;;;;;;2.10;1.83;;;22.80;31.40;;;;;;10439789;28;20704;-76
2022/08/03 01:35:12;;;;;;;1.70;1.60;;;22.80;31.40;;;;;;10431068;28;20311;-76
2022/08/03 01:40:16;;;;;;;1.60;1.50;;;22.70;31.00;;;;;;10440998;28;20225;-76
2022/08/03 01:45:22;;;;;;;2.80;1.80;;;22.70;30.70;;;;;;10436582;28;20225;-76
2022/08/03 01:50:30;;;;;;;2.30;1.60;;;22.60;31.40;;;;;;10435916;28;20229;-75
2022/08/03 01:55:37;;;;;;;1.77;1.67;;;22.60;31.60;;;;;;10434680;28;20239;-76
2022/08/03 02:00:42;;;;;;;1.60;1.50;;;22.50;31.50;;;;;;10435675;28;20240;-76
2022/08/03 02:05:47;;;;;;;1.70;1.60;;;22.50;31.30;;;;;;10438679;28;20307;-76
2022/08/03 02:10:51;;;;;;;1.53;1.43;;;22.40;31.00;;;;;;10438250;28;20217;-76
2022/08/03 02:15:58;;;;;;;1.67;1.57;;;22.30;30.90;;;;;;10433584;28;20308;-76
2022/08/03 02:21:03;;;;;;;1.70;1.60;;;22.30;31.50;;;;;;10436313;28;20231;-76
2022/08/03 02:26:17;;;;;;;1.40;1.30;;;22.30;31.20;;;;;;10437274;28;20560;-75
2022/08/03 02:31:25;;;;;;;1.60;1.50;;;22.30;31.70;;;;;;10436228;28;20307;-76
2022/08/03 02:36:30;;;;;;;1.80;1.70;;;22.20;32.00;;;;;;10433390;28;20712;-76
2022/08/03 02:41:38;;;;;;;2.20;2.00;;;22.10;31.60;;;;;;10439462;28;20235;-76
2022/08/03 02:46:45;;;;;;;1.93;1.83;;;22.10;32.00;;;;;;10440728;28;20233;-76
2022/08/03 02:51:52;;;;;;;2.10;1.90;;;22.00;32.20;;;;;;10444746;28;20224;-76
2022/08/03 02:56:58;;;;;;;3.03;1.80;;;21.90;31.90;;;;;;10446183;28;20228;-75
2022/08/03 03:02:03;;;;;;;1.93;1.70;;;21.80;32.30;;;;;;10445347;28;20227;-76
2022/08/03 03:07:06;;;;;;;2.00;1.80;;;21.70;32.30;;;;;;10444462;28;20607;-76
2022/08/03 03:12:12;;;;;;;1.97;1.87;;;21.60;32.00;;;;;;10446703;28;20233;-75
2022/08/03 03:17:18;;;;;;;1.90;1.70;;;21.50;32.10;;;;;;10444696;28;20320;-76
2022/08/03 03:22:23;;;;;;;2.40;1.67;;;21.50;32.80;;;;;;10447972;28;20236;-76
2022/08/03 03:27:27;;;;;;;1.60;1.50;;;21.40;32.50;;;;;;10447150;28;20251;-76
2022/08/03 03:32:35;;;;;;;1.97;1.63;;;21.40;32.30;;;;;;10443773;28;20231;-76
2022/08/03 03:37:38;;;;;;;1.83;1.73;;;21.40;33.00;;;;;;10442872;28;20232;-76
2022/08/03 03:42:42;;;;;;;4.50;1.50;;;21.40;32.60;;;;;;10440692;28;20598;-76
2022/08/03 03:47:47;;;;;;;1.87;1.77;;;21.40;32.60;;;;;;10439753;28;20217;-76
2022/08/03 03:52:50;;;;;;;3.90;1.63;;;21.30;33.00;;;;;;10443938;28;20231;-77
2022/08/03 03:57:54;;;;;;;1.70;1.60;;;21.30;32.70;;;;;;10443927;28;20220;-76
2022/08/03 04:02:58;;;;;;;1.77;1.67;;;21.30;32.70;;;;;;10444802;28;20240;-76
2022/08/03 04:13:31;;;;;;;1.80;1.70;;;21.20;33.20;;;;;;10433387;28;20229;-76
2022/08/03 04:18:39;;;;;;;2.13;1.93;;;21.20;33.50;;;;;;10439683;28;20228;-76
2022/08/03 04:23:48;;;;;;;3.40;1.80;;;21.20;33.70;;;;;;10438675;28;20247;-77
2022/08/03 04:28:53;;;;;;;1.90;1.80;;;21.20;33.80;;;;;;10440595;28;20217;-77
2022/08/03 04:33:59;;;;;;;2.23;1.90;;;21.20;33.20;;;;;;10435640;28;20229;-77
2022/08/03 04:39:06;;;;;;;2.03;1.77;;;21.10;33.60;;;;;;10441664;28;20336;-77
2022/08/03 04:44:10;;;;;;;2.13;2.03;;;21.10;33.90;;;;;;10435124;28;20232;-77
2022/08/03 04:49:16;;;;;;;2.17;1.97;;;21.10;33.80;;;;;;10435233;28;20227;-76
2022/08/03 04:54:19;;;;;;;3.53;1.97;;;21.00;33.90;;;;;;10438017;28;20225;-76
2022/08/03 04:59:22;;;;;;;2.67;2.20;;;21.00;33.70;;;;;;10432813;28;20244;-77
2022/08/03 05:04:27;;;;;;;2.20;2.07;;;21.00;34.00;;;;;;10438788;28;20228;-76
2022/08/03 05:09:30;;;;;;;3.23;2.00;;;21.00;34.50;;;;;;10439961;28;20245;-77
2022/08/03 05:14:54;;;;;;;2.70;2.33;;;21.00;34.00;;;;;;10430346;28;20236;-77
2022/08/03 05:19:59;;;;;;;2.63;2.43;;;21.10;34.50;;;;;;10440472;28;20225;-77
2022/08/03 05:25:02;;;;;;;2.80;2.20;;;21.10;34.90;;;;;;10433017;28;20221;-75
2022/08/03 05:30:07;;;;;;;2.00;1.80;;;21.20;35.40;;;;;;10434076;28;20744;-76
2022/08/03 05:35:33;;;;;;;2.40;2.20;;;21.20;34.80;;;;;;10438168;28;20585;-76
2022/08/03 05:40:57;;;;;;;2.07;1.87;;;21.30;35.60;;;;;;10431138;28;20596;-76
2022/08/03 05:46:21;;;;;;;4.03;2.47;;;21.40;35.40;;;;;;10442951;28;20700;-79
2022/08/03 05:51:27;;;;;;;2.70;2.37;;;21.50;35.50;;;;;;10448850;28;20247;-80
2022/08/03 05:56:32;;;;;;;2.90;2.20;;;21.60;36.20;;;;;;10452666;28;20229;-79
2022/08/03 06:01:37;;;;;;;4.00;2.57;;;21.60;35.70;;;;;;10449657;28;20235;-80
2022/08/03 06:06:42;;;;;;;4.80;2.30;;;21.70;36.70;;;;;;10443757;28;20225;-80
2022/08/03 06:11:45;;;;;;;2.60;2.40;;;21.90;36.70;;;;;;10448489;28;20220;-78
2022/08/03 06:16:48;;;;;;;3.43;2.30;;;21.90;36.00;;;;;;10433985;28;20312;-79
2022/08/03 06:21:53;;;;;;;2.50;2.30;;;22.10;36.10;;;;;;10435015;28;20224;-77
2022/08/03 06:26:57;;;;;;;2.77;2.30;;;22.30;36.60;;;;;;10426048;28;22057;-77
2022/08/03 06:32:00;;;;;;;3.13;2.43;;;22.50;36.10;;;;;;10435171;28;20217;-79
2022/08/03 06:37:05;;;;;;;2.60;2.40;;;22.60;36.00;;;;;;10421120;28;20225;-77
2022/08/03 06:42:09;;;;;;;3.00;2.30;;;22.80;36.30;;;;;;10438748;28;20860;-77
2022/08/03 06:47:12;;;;;;;2.70;2.50;;;23.00;36.40;;;;;;10443015;28;20770;-79
2022/08/03 06:52:17;;;;;;;3.17;2.57;;;23.20;36.60;;;;;;10446426;28;20601;-78
2022/08/03 06:57:40;;;;;;;2.63;2.50;;;23.40;36.90;;;;;;10431827;28;20221;-79
2022/08/03 07:02:43;;;;;;;3.27;2.30;;;23.60;36.60;;;;;;10431079;28;20230;-77
2022/08/03 07:07:48;;;;;;;2.50;2.30;;;23.80;36.50;;;;;;10421688;28;20229;-76
2022/08/03 07:12:51;;;;;;;2.20;2.10;;;24.00;36.70;;;;;;10428037;28;20225;-75
2022/08/03 07:17:58;;;;;;;2.57;2.20;;;24.20;36.30;;;;;;10431960;28;20304;-76
2022/08/03 07:23:03;;;;;;;2.33;2.20;;;24.40;36.80;;;;;;10423289;28;20324;-76
2022/08/03 07:28:07;;;;;;;2.10;2.00;;;24.60;36.70;;;;;;10445842;28;20221;-75
2022/08/03 07:33:10;;;;;;;2.50;2.30;;;24.90;36.20;;;;;;10436990;28;20245;-76
2022/08/03 07:38:15;;;;;;;2.10;2.00;;;25.10;36.30;;;;;;10445041;28;20729;-75
2022/08/03 07:43:18;;;;;;;2.10;2.00;;;25.30;35.90;;;;;;10435257;28;20224;-77
2022/08/03 07:48:21;;;;;;;2.13;1.97;;;25.50;35.70;;;;;;10432201;28;20236;-78
2022/08/03 07:53:26;;;;;;;2.03;1.83;;;25.80;35.90;;;;;;10434283;28;20232;-78
2022/08/03 07:58:29;;;;;;;1.90;1.70;;;26.10;35.70;;;;;;10433280;28;20228;-77
2022/08/03 08:03:32;;;;;;;1.73;1.57;;;26.30;34.90;;;;;;10431524;28;20584;-77
2022/08/03 08:09:00;;;;;;;1.53;1.43;;;26.70;34.50;;;;;;10435727;28;20231;-77
2022/08/03 08:14:04;;;;;;;1.93;1.50;;;27.10;33.80;;;;;;10438761;28;20230;-78
2022/08/03 08:19:07;;;;;;;2.70;1.80;;;27.40;33.40;;;;;;10436169;28;20320;-78
2022/08/03 08:24:14;;;;;;;1.70;1.60;;;27.80;33.30;;;;;;10434980;28;20232;-79
2022/08/03 08:29:22;;;;;;;1.67;1.57;;;28.20;32.20;;;;;;10433383;28;22637;-79
2022/08/03 08:34:25;;;;;;;1.30;1.27;;;28.50;32.00;;;;;;10430273;28;20244;-78
2022/08/03 08:39:30;;;;;;;1.50;1.40;;;28.80;31.40;;;;;;10436834;28;20225;-78
2022/08/03 08:44:33;;;;;;;1.50;1.40;;;29.10;30.50;;;;;;10436374;28;20225;-78
2022/08/03 08:49:39;;;;;;;1.60;1.40;;;29.40;30.60;;;;;;10435272;28;20227;-78
2022/08/03 08:55:06;;;;;;;1.40;1.30;;;29.70;29.60;;;;;;10429657;28;20595;-77
2022/08/03 09:00:13;;;;;;;1.27;1.27;;;30.00;28.80;;;;;;10436293;28;20221;-78
2022/08/03 09:05:19;;;;;;;1.50;1.40;;;30.30;29.20;;;;;;10437785;28;20235;-79
2022/08/03 09:10:43;;;;;;;1.40;1.30;;;30.50;28.30;;;;;;10438895;28;20213;-78
2022/08/03 09:15:48;;;;;;;1.40;1.30;;;30.70;28.10;;;;;;10439597;28;20352;-81
2022/08/03 09:21:14;;;;;;;1.43;1.33;;;30.90;28.10;;;;;;10438477;28;20231;-78
2022/08/03 09:26:36;;;;;;;1.30;1.30;;;31.20;27.20;;;;;;10437144;28;20857;-80
2022/08/03 09:31:40;;;;;;;1.20;1.20;;;31.40;26.20;;;;;;10428741;28;20260;-77
2022/08/03 09:36:47;;;;;;;1.50;1.40;;;31.50;26.30;;;;;;10428895;28;20294;-78
2022/08/03 09:42:05;;;;;;;1.30;1.30;;;31.80;25.80;;;;;;10434081;28;20249;-79
2022/08/03 09:47:10;;;;;;;1.33;1.33;;;32.00;25.70;;;;;;10432024;28;20217;-78
2022/08/03 09:52:16;;;;;;;1.50;1.40;;;32.20;25.20;;;;;;10426019;28;20604;-79
2022/08/03 09:57:45;;;;;;;1.50;1.40;;;32.40;24.90;;;;;;10432176;28;20225;-78
2022/08/03 10:02:49;;;;;;;1.73;1.63;;;32.50;23.40;;;;;;10429356;28;20241;-75
2022/08/03 10:07:52;;;;;;;1.40;1.30;;;32.60;24.50;;;;;;10431566;28;20631;-75
2022/08/03 10:12:57;;;;;;;1.20;1.20;;;32.70;24.10;;;;;;10431792;28;20233;-76
2022/08/03 10:18:00;;;;;;;1.40;1.40;;;32.90;23.50;;;;;;10430047;28;20232;-76
2022/08/03 10:23:05;;;;;;;1.50;1.40;;;33.10;23.70;;;;;;10429050;28;20225;-75
2022/08/03 10:28:14;;;;;;;1.33;1.30;;;33.30;23.10;;;;;;10431255;28;20227;-75
2022/08/03 10:33:20;;;;;;;1.60;1.50;;;33.40;22.30;;;;;;10429764;28;21136;-75
2022/08/03 10:38:51;;;;;;;1.50;1.40;;;33.50;22.40;;;;;;10435249;28;20231;-75
2022/08/03 10:44:02;;;;;;;1.50;1.43;;;33.70;22.40;;;;;;10426717;28;20231;-75
2022/08/03 10:49:07;;;;;;;1.50;1.40;;;33.80;20.90;;;;;;10423398;28;20225;-75
2022/08/03 11:00:05;;;;;;;1.60;1.50;;;33.90;21.20;;;;;;10429515;28;20223;-76
2022/08/03 11:05:27;;;;;;;2.03;1.20;;;33.90;20.60;;;;;;10436607;28;20233;-76
2022/08/03 11:10:31;;;;;;;1.30;1.30;;;34.00;21.10;;;;;;10437857;28;20233;-76
2022/08/03 11:15:36;;;;;;;1.40;1.30;;;34.10;20.60;;;;;;10439522;28;20220;-76
2022/08/03 11:20:47;;;;;;;2.40;1.50;;;34.10;19.90;;;;;;10437753;28;20237;-79
2022/08/03 11:26:12;;;;;;;1.60;1.50;;;34.10;19.60;;;;;;10445446;28;20238;-78
2022/08/03 11:31:48;;;;;;;1.67;1.57;;;34.20;20.00;;;;;;10446736;28;20222;-79
2022/08/03 11:37:20;;;;;;;1.53;1.50;;;34.30;20.00;;;;;;10430505;28;20704;-78
2022/08/03 11:42:49;;;;;;;1.53;1.43;;;34.30;19.80;;;;;;10432452;28;20640;-77
2022/08/03 11:47:55;;;;;;;2.43;1.50;;;34.40;19.20;;;;;;10436526;28;20227;-75
2022/08/03 11:52:58;;;;;;;1.70;1.60;;;34.40;18.70;;;;;;10442394;28;20562;-77
2022/08/03 11:58:01;;;;;;;1.40;1.40;;;34.40;19.20;;;;;;10439858;28;20246;-79
2022/08/03 12:03:33;;;;;;;1.73;1.63;;;34.50;19.00;;;;;;10435888;28;20236;-78
2022/08/03 12:08:36;;;;;;;1.50;1.50;;;34.60;18.10;;;;;;10431730;28;20316;-78
2022/08/03 12:13:41;;;;;;;1.60;1.50;;;34.60;18.70;;;;;;10434027;28;20261;-77
2022/08/03 12:19:07;;;;;;;1.53;1.50;;;34.60;18.30;;;;;;10434725;28;20217;-76
2022/08/03 12:24:10;;;;;;;1.90;1.80;;;34.60;18.30;;;;;;10435203;28;20274;-76
2022/08/03 12:29:18;;;;;;;1.90;1.53;;;34.60;18.30;;;;;;10432715;28;20609;-77
2022/08/03 12:34:23;;;;;;;1.80;1.70;;;34.60;17.90;;;;;;10434166;28;20224;-75
2022/08/03 12:39:28;;;;;;;1.83;1.37;;;34.60;17.70;;;;;;10431271;28;20663;-76
2022/08/03 12:44:36;;;;;;;1.40;1.40;;;34.60;16.70;;;;;;10433844;28;20248;-76
2022/08/03 12:49:47;;;;;;;1.60;1.50;;;34.60;16.70;;;;;;10428578;28;20229;-77
2022/08/03 12:54:57;;;;;;;1.40;1.40;;;34.50;16.60;;;;;;10431193;28;20502;-76
2022/08/03 13:00:11;;;;;;;1.60;1.50;;;34.60;17.20;;;;;;10438058;28;20718;-78
2022/08/03 13:05:43;;;;;;;1.57;1.37;;;34.60;16.30;;;;;;10439186;28;20232;-78
2022/08/03 13:10:46;;;;;;;1.67;1.57;;;34.70;16.30;;;;;;10438426;28;20235;-77
2022/08/03 13:15:51;;;;;;;1.40;1.30;;;34.80;16.50;;;;;;10427907;28;20232;-76
2022/08/03 13:20:56;;;;;;;1.40;1.30;;;34.80;16.00;;;;;;10430749;28;20608;-77
2022/08/03 13:25:59;;;;;;;1.53;1.43;;;34.80;15.10;;;;;;10425950;28;20233;-77
2022/08/03 13:31:03;;;;;;;1.53;1.40;;;34.80;15.70;;;;;;10427625;28;20327;-76
2022/08/03 13:36:10;;;;;;;1.40;1.30;;;34.80;15.50;;;;;;10426855;28;20238;-76
2022/08/03 13:41:13;;;;;;;1.60;1.50;;;34.90;14.60;;;;;;10429412;28;20383;-77
2022/08/03 13:46:19;;;;;;;1.40;1.40;;;34.90;15.20;;;;;;10429254;28;20262;-76
2022/08/03 13:51:23;;;;;;;1.60;1.50;;;34.90;14.80;;;;;;10449804;28;20256;-76
2022/08/03 13:56:27;;;;;;;1.50;1.40;;;35.00;14.60;;;;;;10420529;28;20240;-77
2022/08/03 14:01:30;;;;;;;1.20;1.20;;;34.90;14.70;;;;;;10415079;28;20230;-78
2022/08/03 14:06:54;;;;;;;1.50;1.40;;;34.90;15.00;;;;;;10433167;28;20704;-78
2022/08/03 14:11:58;;;;;;;1.37;1.37;;;35.00;14.10;;;;;;10431631;28;20226;-78
2022/08/03 14:17:10;;;;;;;1.30;1.30;;;35.00;14.30;;;;;;10431051;28;20232;-79
2022/08/03 14:22:15;;;;;;;1.63;1.30;;;35.00;14.20;;;;;;10448643;28;20221;-78
2022/08/03 14:27:18;;;;;;;1.50;1.40;;;35.10;13.70;;;;;;10449092;28;20245;-79
2022/08/03 14:32:22;;;;;;;1.40;1.40;;;35.10;13.20;;;;;;10454889;28;20779;-78
2022/08/03 14:37:27;;;;;;;1.40;1.30;;;35.20;13.20;;;;;;10457464;28;20253;-79
2022/08/03 14:42:30;;;;;;;1.80;1.30;;;35.20;13.20;;;;;;10453287;28;20242;-78
2022/08/03 14:47:34;;;;;;;1.40;1.30;;;35.20;13.20;;;;;;10452494;28;20225;-79
2022/08/03 14:52:58;;;;;;;1.87;1.40;;;35.20;13.20;;;;;;10452386;28;20235;-78
2022/08/03 14:58:08;;;;;;;1.30;1.30;;;35.20;12.70;;;;;;10454396;28;20228;-78
2022/08/03 15:03:23;;;;;;;1.20;1.20;;;35.20;12.90;;;;;;10445756;28;20619;-78
2022/08/03 15:08:28;;;;;;;1.87;1.50;;;35.20;12.70;;;;;;10450801;28;20278;-80
2022/08/03 15:13:31;;;;;;;1.30;1.30;;;35.20;12.80;;;;;;10436983;28;20235;-78
2022/08/03 15:18:35;;;;;;;1.23;1.23;;;35.20;12.80;;;;;;10412873;28;20243;-79
2022/08/03 15:23:39;;;;;;;1.53;1.40;;;35.20;12.90;;;;;;10411427;28;20586;-77
2022/08/03 15:28:42;;;;;;;1.20;1.20;;;35.30;12.50;;;;;;10409701;28;20237;-77
2022/08/03 15:33:46;;;;;;;1.40;1.40;;;35.30;12.80;;;;;;10407721;28;20268;-77
2022/08/03 15:38:51;;;;;;;3.40;1.60;;;35.30;12.60;;;;;;10408124;28;20316;-77
2022/08/03 15:43:55;;;;;;;1.40;1.40;;;35.30;11.80;;;;;;10407410;28;20271;-77
2022/08/03 15:48:58;;;;;;;3.40;1.33;;;35.30;12.10;;;;;;10414769;28;20247;-78
2022/08/03 15:54:02;;;;;;;1.50;1.40;;;35.20;12.60;;;;;;10416215;28;20247;-77
2022/08/03 15:59:06;;;;;;;1.20;1.20;;;35.20;11.60;;;;;;10416473;28;20225;-79
2022/08/03 16:04:16;;;;;;;1.70;1.40;;;35.20;11.90;;;;;;10420556;28;20241;-78
2022/08/03 16:09:21;;;;;;;1.10;1.10;;;35.20;11.80;;;;;;10419913;28;20240;-78
2022/08/03 16:14:45;;;;;;;4.77;1.40;;;35.20;11.70;;;;;;10420627;28;20244;-78
2022/08/03 16:19:56;;;;;;;1.20;1.20;;;35.20;12.00;;;;;;10419378;28;20234;-78
2022/08/03 16:25:01;;;;;;;1.40;1.30;;;35.30;12.10;;;;;;10418286;28;20331;-78
2022/08/03 16:30:06;;;;;;;3.67;1.60;;;35.30;11.50;;;;;;10442361;28;20857;-78
2022/08/03 16:35:10;;;;;;;1.60;1.50;;;35.30;11.70;;;;;;10459289;28;20243;-77
2022/08/03 16:40:24;;;;;;;1.40;1.30;;;35.30;11.70;;;;;;10460243;28;20231;-77
2022/08/03 16:45:28;;;;;;;1.50;1.33;;;35.30;11.40;;;;;;10459484;28;20236;-78
2022/08/03 16:50:32;;;;;;;1.47;1.40;;;35.30;11.50;;;;;;10458461;28;20235;-78
2022/08/03 16:55:38;;;;;;;1.40;1.30;;;35.30;11.30;;;;;;10456476;28;20585;-78
2022/08/03 17:00:55;;;;;;;1.60;1.50;;;35.40;11.20;;;;;;10455889;28;20225;-77
2022/08/03 17:06:00;;;;;;;1.23;1.23;;;35.40;11.40;;;;;;10459073;28;20233;-78
2022/08/03 17:11:06;;;;;;;1.33;1.30;;;35.40;11.30;;;;;;10456936;28;20232;-78
2022/08/03 17:16:10;;;;;;;1.50;1.40;;;35.40;10.90;;;;;;10456054;28;20646;-78
2022/08/03 17:21:21;;;;;;;1.30;1.30;;;35.40;11.10;;;;;;10456718;28;20780;-78
2022/08/03 17:26:27;;;;;;;1.17;1.10;;;35.40;11.10;;;;;;10457041;28;20240;-78
2022/08/03 17:31:33;;;;;;;1.20;1.20;;;35.40;10.90;;;;;;10456795;28;20315;-77
2022/08/03 17:36:51;;;;;;;1.20;1.20;;;35.40;11.20;;;;;;10456934;28;20238;-77
2022/08/03 17:42:16;;;;;;;1.30;1.30;;;35.40;11.40;;;;;;10456396;28;20231;-79
2022/08/03 17:47:34;;;;;;;1.30;1.30;;;35.40;11.20;;;;;;10456716;28;20232;-78
2022/08/03 17:52:47;;;;;;;1.50;1.40;;;35.40;11.40;;;;;;10456126;28;20319;-78
2022/08/03 17:58:00;;;;;;;1.40;1.37;;;35.30;11.50;;;;;;10448923;28;20233;-76
2022/08/03 18:03:27;;;;;;;1.40;1.40;;;35.30;11.60;;;;;;10455814;28;20233;-77
2022/08/03 18:08:35;;;;;;;1.30;1.30;;;35.20;12.00;;;;;;10455934;28;20228;-78
2022/08/03 18:13:45;;;;;;;1.63;1.53;;;35.10;12.60;;;;;;10456983;28;20279;-77
2022/08/03 18:19:01;;;;;;;1.50;1.40;;;35.10;12.70;;;;;;10457207;28;20233;-78
2022/08/03 18:24:11;;;;;;;2.17;1.40;;;35.00;13.10;;;;;;10432633;28;20225;-77
2022/08/03 18:29:19;;;;;;;1.20;1.20;;;34.80;13.00;;;;;;10416807;28;20231;-78
2022/08/03 18:34:24;;;;;;;1.90;1.43;;;34.70;13.00;;;;;;10432500;28;20749;-78
2022/08/03 18:39:38;;;;;;;1.80;1.70;;;34.50;13.30;;;;;;10457870;28;20315;-78
2022/08/03 18:44:53;;;;;;;1.40;1.40;;;34.40;13.90;;;;;;10452826;28;20303;-77
2022/08/03 18:50:07;;;;;;;1.50;1.40;;;34.30;14.20;;;;;;10430580;28;20227;-77
2022/08/03 18:55:17;;;;;;;2.63;1.30;;;34.10;14.60;;;;;;10443818;28;20300;-76
2022/08/03 19:00:42;;;;;;;2.10;1.60;;;34.00;14.90;;;;;;10440533;28;20596;-78
2022/08/03 19:06:04;;;;;;;2.03;1.60;;;33.80;15.20;;;;;;10406775;28;20231;-76
2022/08/03 19:11:36;;;;;;;2.27;1.60;;;33.70;15.40;;;;;;10416906;28;20268;-75
2022/08/03 19:17:07;;;;;;;2.70;2.00;;;33.50;15.50;;;;;;10426686;28;20237;-78
2022/08/03 19:22:12;;;;;;;1.93;1.83;;;33.30;15.80;;;;;;10407032;28;20221;-77
2022/08/03 19:27:21;;;;;;;1.67;1.57;;;33.10;15.60;;;;;;10444642;28;20236;-78
2022/08/03 19:32:32;;;;;;;1.80;1.70;;;32.90;16.00;;;;;;10445892;28;20229;-75
2022/08/03 19:37:36;;;;;;;1.80;1.70;;;32.70;16.10;;;;;;10409739;28;20241;-76
2022/08/03 19:42:50;;;;;;;3.80;2.30;;;32.50;16.00;;;;;;10404485;28;20236;-77
2022/08/03 19:48:03;;;;;;;2.20;2.10;;;32.30;16.80;;;;;;10404756;28;20704;-77
2022/08/03 19:53:13;;;;;;;2.03;1.93;;;32.20;17.00;;;;;;10403808;28;20229;-79
2022/08/03 19:58:17;;;;;;;1.60;1.50;;;32.00;16.90;;;;;;10412282;28;20224;-78
2022/08/03 20:03:32;;;;;;;1.67;1.57;;;31.80;16.80;;;;;;10436080;28;20264;-77
2022/08/03 20:08:46;;;;;;;2.50;1.80;;;31.60;17.20;;;;;;10407303;28;20237;-80
2022/08/03 20:13:55;;;;;;;2.33;1.60;;;31.40;17.30;;;;;;10444459;28;20842;-80
2022/08/03 20:18:59;;;;;;;2.30;1.97;;;31.30;17.60;;;;;;10425130;28;20601;-80
2022/08/03 20:24:05;;;;;;;2.27;1.93;;;31.20;17.80;;;;;;10410812;28;20308;-79
2022/08/03 20:29:30;;;;;;;1.80;1.70;;;31.10;17.90;;;;;;10448534;28;20225;-78
2022/08/03 20:34:54;;;;;;;2.87;1.87;;;30.90;18.20;;;;;;10451181;28;20229;-79
2022/08/03 20:40:00;;;;;;;1.93;1.83;;;30.80;18.20;;;;;;10452066;28;20225;-78
2022/08/03 20:45:05;;;;;;;2.30;1.90;;;30.50;18.20;;;;;;10452018;28;20229;-78
2022/08/03 20:50:30;;;;;;;2.07;1.90;;;30.40;18.40;;;;;;10452787;28;20233;-80
2022/08/03 20:55:34;;;;;;;3.90;1.93;;;30.20;18.80;;;;;;10435055;28;20820;-81
2022/08/03 21:00:57;;;;;;;2.77;2.30;;;30.00;18.70;;;;;;10410511;28;20234;-80
2022/08/03 21:06:05;;;;;;;1.90;1.80;;;29.80;18.80;;;;;;10409153;28;20234;-80
2022/08/03 21:11:16;;;;;;;2.10;1.97;;;29.60;19.60;;;;;;10410751;28;20221;-78
2022/08/03 21:16:20;;;;;;;3.40;1.77;;;29.30;19.70;;;;;;10411537;28;20793;-80
2022/08/03 21:21:29;;;;;;;1.80;1.70;;;29.20;19.60;;;;;;10442552;28;20239;-80
2022/08/03 21:26:34;;;;;;;2.20;2.00;;;29.00;20.20;;;;;;10450483;28;20241;-80
2022/08/03 21:31:40;;;;;;;1.90;1.80;;;28.90;20.10;;;;;;10451561;28;20282;-77
2022/08/03 21:36:44;;;;;;;2.00;1.80;;;28.70;20.40;;;;;;10449945;28;20237;-80
2022/08/03 21:41:48;;;;;;;1.63;1.53;;;28.50;20.40;;;;;;10450153;28;20237;-80
2022/08/03 21:46:53;;;;;;;1.80;1.70;;;28.40;20.30;;;;;;10449977;28;20255;-80
2022/08/03 21:52:02;;;;;;;1.80;1.70;;;28.30;20.30;;;;;;10450506;28;20228;-79
2022/08/03 21:57:13;;;;;;;1.80;1.70;;;28.20;20.60;;;;;;10448925;28;20253;-79
2022/08/03 22:02:16;;;;;;;2.10;2.00;;;28.00;21.00;;;;;;10441694;28;20228;-78
2022/08/03 22:07:30;;;;;;;2.00;1.90;;;27.90;20.60;;;;;;10433454;28;20727;-79
2022/08/03 22:12:33;;;;;;;2.00;1.90;;;27.70;21.10;;;;;;10438052;28;21210;-81
2022/08/03 22:17:38;;;;;;;1.97;1.70;;;27.60;20.80;;;;;;10434171;28;20233;-80
2022/08/03 22:23:05;;;;;;;2.57;2.00;;;27.40;21.10;;;;;;10442843;28;20287;-81
2022/08/03 22:28:12;;;;;;;2.23;2.03;;;27.20;21.80;;;;;;10440986;28;20600;-81
2022/08/03 22:33:15;;;;;;;2.20;2.10;;;27.10;22.50;;;;;;10442609;28;20765;-80
2022/08/03 22:38:20;;;;;;;2.00;1.80;;;27.00;21.60;;;;;;10445193;28;20228;-81
2022/08/03 22:43:25;;;;;;;2.33;1.90;;;26.80;22.10;;;;;;10447703;28;20612;-79
2022/08/03 22:48:32;;;;;;;3.07;1.97;;;26.60;22.20;;;;;;10447138;28;20234;-81
2022/08/03 22:53:39;;;;;;;2.13;1.87;;;26.40;23.00;;;;;;10447163;28;20608;-80
2022/08/03 22:58:42;;;;;;;2.50;1.90;;;26.20;23.00;;;;;;10445880;28;20231;-81
2022/08/03 23:03:52;;;;;;;1.90;1.80;;;26.00;22.70;;;;;;10453546;28;20232;-81
2022/08/03 23:09:10;;;;;;;2.53;1.83;;;25.90;23.80;;;;;;10449440;28;20255;-81
2022/08/03 23:14:16;;;;;;;2.30;2.10;;;25.80;24.10;;;;;;10454733;28;20221;-81
2022/08/03 23:19:20;;;;;;;2.20;2.00;;;25.70;23.80;;;;;;10441389;28;20581;-80
2022/08/03 23:24:29;;;;;;;2.73;2.33;;;25.60;23.60;;;;;;10449875;28;20240;-80
2022/08/03 23:29:35;;;;;;;2.30;2.10;;;25.60;24.10;;;;;;10447981;28;20224;-79
2022/08/03 23:40:03;;;;;;;2.13;2.03;;;25.30;24.00;;;;;;10448114;28;20224;-82
2022/08/03 23:45:07;;;;;;;2.23;2.00;;;25.20;24.50;;;;;;10450415;28;20231;-81
2022/08/03 23:50:11;;;;;;;2.13;1.80;;;25.10;24.30;;;;;;10455160;28;20224;-81
2022/08/03 23:55:39;;;;;;;1.80;1.70;;;25.10;24.90;;;;;;10449377;28;20252;-81
